Time;durP1;ratioP1;P1;durP2;ratioP2;P2;SDS_P1;SDS_P2;PMS_P1;PMS_P2;Temp;Humidity;BMP_temperature;BMP_pressure;BME280_temperature;BME280_humidity;BME280_pressure;Samples;Min_cycle;Max_cycle;Signal;HPM_P1;HPM_P2
2023/05/21 00:09:11;;;;;;;;;;;;;;;15.80;71.54;102140.28;20795584;28;19929;-55
2023/05/21 00:19:33;;;;;;;;;;;;;;;15.79;71.71;102135.94;20790282;28;20399;-56
2023/05/21 00:29:55;;;;;;;;;;;;;;;15.83;71.82;102137.56;20797664;28;19971;-56
2023/05/21 00:40:17;;;;;;;;;;;;;;;15.76;71.87;102136.03;20791144;28;19925;-56
2023/05/21 00:50:39;;;;;;;;;;;;;;;15.73;72.16;102118.69;20790179;28;19941;-56
2023/05/21 01:01:02;;;;;;;;;;;;;;;15.74;71.49;102107.38;20800228;28;19936;-56
2023/05/21 01:11:30;;;;;;;;;;;;;;;15.71;71.41;102098.78;20808680;28;19951;-55
2023/05/21 01:21:55;;;;;;;;;;;;;;;15.59;71.85;102089.56;20804969;28;19933;-55
2023/05/21 01:32:25;;;;;;;;;;;;;;;15.51;72.41;102085.50;20797947;28;20031;-57
2023/05/21 01:42:47;;;;;;;;;;;;;;;15.47;72.56;102078.66;20810284;28;19964;-57
2023/05/21 01:53:08;;;;;;;;;;;;;;;15.32;74.87;102074.72;20781221;28;19925;-56
2023/05/21 02:03:30;;;;;;;;;;;;;;;15.32;71.91;102086.91;20792579;28;19933;-57
2023/05/21 02:13:53;;;;;;;;;;;;;;;15.23;71.69;102076.72;20788386;28;19929;-57
2023/05/21 02:24:15;;;;;;;;;;;;;;;15.16;72.33;102067.38;20784953;28;20011;-57
2023/05/21 02:34:41;;;;;;;;;;;;;;;15.07;71.76;102071.94;20808394;28;19932;-57
2023/05/21 02:45:02;;;;;;;;;;;;;;;14.84;72.24;102069.16;20799676;28;19924;-56
2023/05/21 02:55:29;;;;;;;;;;;;;;;14.78;71.81;102058.03;20800740;28;20288;-57
2023/05/21 03:05:51;;;;;;;;;;;;;;;14.72;72.53;102061.66;20808633;28;19925;-55
2023/05/21 03:16:13;;;;;;;;;;;;;;;14.63;72.33;102055.84;20808182;28;20327;-57
2023/05/21 03:26:34;;;;;;;;;;;;;;;14.57;72.15;102058.63;20802890;28;19925;-57
2023/05/21 03:36:56;;;;;;;;;;;;;;;14.42;72.67;102044.25;20802298;28;20035;-57
2023/05/21 03:47:17;;;;;;;;;;;;;;;14.35;71.67;102034.91;20808524;28;19929;-57
2023/05/21 03:57:40;;;;;;;;;;;;;;;14.31;71.92;102035.84;20804104;28;19925;-57
2023/05/21 04:08:01;;;;;;;;;;;;;;;14.20;72.71;102050.88;20802780;28;20295;-57
2023/05/21 04:18:24;;;;;;;;;;;;;;;14.09;72.79;102052.88;20798920;28;19947;-57
2023/05/21 04:28:46;;;;;;;;;;;;;;;13.96;73.73;102067.94;20800206;28;20361;-57
2023/05/21 04:39:08;;;;;;;;;;;;;;;13.95;73.86;102062.78;20802903;28;19932;-57
2023/05/21 04:49:29;;;;;;;;;;;;;;;13.99;73.91;102067.03;20799999;28;19925;-57
2023/05/21 04:59:51;;;;;;;;;;;;;;;14.03;77.56;102055.63;20786143;28;20360;-58
2023/05/21 05:10:13;;;;;;;;;;;;;;;14.10;74.34;102050.25;20802222;28;19929;-57
2023/05/21 05:20:34;;;;;;;;;;;;;;;14.15;73.37;102052.75;20792277;28;19925;-56
2023/05/21 05:30:56;;;;;;;;;;;;;;;14.25;74.46;102028.16;20802246;28;20344;-57
2023/05/21 05:41:17;;;;;;;;;;;;;;;14.30;74.08;102028.09;20793143;28;19929;-57
2023/05/21 05:51:39;;;;;;;;;;;;;;;14.36;74.81;102015.75;20806356;28;19929;-56
2023/05/21 06:02:00;;;;;;;;;;;;;;;14.43;77.66;102027.72;20812375;28;20379;-55
2023/05/21 06:12:22;;;;;;;;;;;;;;;14.48;74.82;102010.25;20813059;28;19929;-57
2023/05/21 06:22:43;;;;;;;;;;;;;;;14.54;72.74;102012.66;20812824;28;19929;-55
2023/05/21 06:33:05;;;;;;;;;;;;;;;14.61;73.46;102010.75;20809653;28;20292;-57
2023/05/21 06:43:27;;;;;;;;;;;;;;;14.67;77.49;102018.38;20809427;28;19933;-57
2023/05/21 06:53:49;;;;;;;;;;;;;;;14.79;73.54;102016.31;20811787;28;19929;-56
2023/05/21 07:04:10;;;;;;;;;;;;;;;15.01;73.81;102012.19;20821782;28;19925;-57
2023/05/21 07:14:32;;;;;;;;;;;;;;;15.24;72.65;102008.00;20799306;28;19939;-55
2023/05/21 07:24:53;;;;;;;;;;;;;;;15.35;74.35;102013.75;20795955;28;19925;-56
2023/05/21 07:35:15;;;;;;;;;;;;;;;15.50;73.50;102000.28;20801439;28;20018;-56
2023/05/21 07:45:36;;;;;;;;;;;;;;;15.59;73.64;101990.41;20805463;28;19925;-56
2023/05/21 07:55:58;;;;;;;;;;;;;;;15.78;73.72;101970.66;20802955;28;20468;-57
2023/05/21 08:06:21;;;;;;;;;;;;;;;15.89;72.92;101965.06;20791672;28;20016;-56
2023/05/21 08:16:43;;;;;;;;;;;;;;;16.03;73.28;101952.41;20796652;28;19935;-56
2023/05/21 08:27:06;;;;;;;;;;;;;;;16.25;73.58;101955.97;20796586;28;19941;-57
2023/05/21 08:37:28;;;;;;;;;;;;;;;16.39;73.68;101961.53;20790162;28;19935;-55
2023/05/21 08:47:54;;;;;;;;;;;;;;;16.61;73.02;101972.13;20793561;28;20463;-57
2023/05/21 08:58:15;;;;;;;;;;;;;;;16.90;71.68;101964.88;20792962;28;20323;-57
2023/05/21 09:08:40;;;;;;;;;;;;;;;17.09;76.29;101968.50;20800386;28;20008;-57
2023/05/21 09:19:01;;;;;;;;;;;;;;;17.43;71.84;101956.72;20804455;28;19960;-56
2023/05/21 09:29:25;;;;;;;;;;;;;;;17.66;71.47;101940.97;20796174;28;19929;-55
2023/05/21 09:39:47;;;;;;;;;;;;;;;17.85;72.60;101934.91;20813885;28;19929;-57
2023/05/21 09:50:13;;;;;;;;;;;;;;;17.98;72.90;101936.06;20823229;28;19925;-57
2023/05/21 10:00:34;;;;;;;;;;;;;;;18.20;71.78;101925.53;20832505;28;19929;-56
2023/05/21 10:10:56;;;;;;;;;;;;;;;18.44;73.79;101913.13;20810521;28;19933;-55
2023/05/21 10:21:18;;;;;;;;;;;;;;;18.75;72.46;101908.19;20809514;28;20362;-57
2023/05/21 10:31:42;;;;;;;;;;;;;;;19.01;70.76;101890.28;20811984;28;19925;-57
2023/05/21 10:42:13;;;;;;;;;;;;;;;19.39;71.81;101882.34;20805759;28;19944;-57
2023/05/21 10:52:53;;;;;;;;;;;;;;;19.90;69.77;101875.31;20828004;28;19945;-57
2023/05/21 11:03:15;;;;;;;;;;;;;;;20.20;70.44;101879.94;20807916;28;19929;-57
2023/05/21 11:13:47;;;;;;;;;;;;;;;20.32;69.14;101869.59;20806652;28;19951;-57
2023/05/21 11:24:17;;;;;;;;;;;;;;;20.96;68.90;101851.09;20819235;28;19932;-57
2023/05/21 11:34:40;;;;;;;;;;;;;;;21.77;67.13;101837.56;20810009;28;19925;-57
2023/05/21 11:45:02;;;;;;;;;;;;;;;21.91;65.89;101834.97;20820345;28;20283;-57
2023/05/21 11:55:24;;;;;;;;;;;;;;;22.10;66.17;101832.91;20799629;28;20023;-57
2023/05/21 12:05:47;;;;;;;;;;;;;;;22.41;66.56;101811.56;20808708;28;19929;-56
2023/05/21 12:16:09;;;;;;;;;;;;;;;22.30;66.93;101813.19;20798774;28;20004;-57
2023/05/21 12:26:31;;;;;;;;;;;;;;;22.19;67.71;101805.94;20800552;28;19983;-57
2023/05/21 12:36:53;;;;;;;;;;;;;;;22.26;66.86;101795.84;20797605;28;19928;-57
2023/05/21 12:47:15;;;;;;;;;;;;;;;22.50;67.80;101784.59;20791259;28;20020;-56
2023/05/21 12:57:39;;;;;;;;;;;;;;;22.56;66.71;101780.75;20791207;28;19932;-57
2023/05/21 13:08:01;;;;;;;;;;;;;;;22.61;67.12;101781.28;20797396;28;19925;-57
2023/05/21 13:18:22;;;;;;;;;;;;;;;22.89;65.68;101782.03;20777839;28;19936;-56
2023/05/21 13:28:44;;;;;;;;;;;;;;;23.06;65.77;101772.13;20797979;28;19948;-57
2023/05/21 13:39:05;;;;;;;;;;;;;;;23.22;65.52;101767.53;20800108;28;19932;-57
2023/05/21 13:49:27;;;;;;;;;;;;;;;23.27;66.54;101752.19;20796258;28;19929;-57
2023/05/21 13:59:49;;;;;;;;;;;;;;;23.33;65.72;101749.19;20800745;28;19936;-56
2023/05/21 14:10:11;;;;;;;;;;;;;;;23.56;65.08;101737.88;20798558;28;20012;-55
2023/05/21 14:20:33;;;;;;;;;;;;;;;23.77;64.90;101734.56;20812169;28;19979;-57
2023/05/21 14:30:54;;;;;;;;;;;;;;;23.81;65.43;101719.31;20818657;28;19929;-57
2023/05/21 14:41:16;;;;;;;;;;;;;;;23.95;64.45;101716.56;20826994;28;19936;-58
2023/05/21 14:51:37;;;;;;;;;;;;;;;23.99;64.68;101712.72;20808165;28;19925;-55
2023/05/21 15:01:59;;;;;;;;;;;;;;;24.04;64.63;101702.72;20810645;28;19955;-57
2023/05/21 15:12:20;;;;;;;;;;;;;;;24.05;63.47;101693.81;20815880;28;20073;-57
2023/05/21 15:22:42;;;;;;;;;;;;;;;24.16;63.78;101674.50;20808132;28;19930;-56
2023/05/21 15:33:03;;;;;;;;;;;;;;;24.16;64.30;101662.13;20801122;28;20376;-57
2023/05/21 15:43:24;;;;;;;;;;;;;;;24.14;63.73;101664.03;20796027;28;19937;-57
2023/05/21 15:53:46;;;;;;;;;;;;;;;24.15;63.57;101665.75;20806996;28;19961;-56
2023/05/21 16:04:07;;;;;;;;;;;;;;;24.29;63.36;101652.31;20788416;28;19925;-58
2023/05/21 16:14:29;;;;;;;;;;;;;;;24.35;63.56;101659.81;20799156;28;20419;-58
2023/05/21 16:24:50;;;;;;;;;;;;;;;24.47;62.81;101658.91;20798799;28;19941;-58
2023/05/21 16:35:12;;;;;;;;;;;;;;;24.44;63.41;101656.50;20801718;28;19925;-56
2023/05/21 16:45:37;;;;;;;;;;;;;;;24.47;62.96;101665.97;20800387;28;20011;-57
2023/05/21 16:55:59;;;;;;;;;;;;;;;24.48;63.66;101657.09;20817527;28;19929;-56
2023/05/21 17:06:22;;;;;;;;;;;;;;;24.48;63.61;101657.09;20788312;28;20396;-57
2023/05/21 17:16:43;;;;;;;;;;;;;;;24.46;64.08;101654.56;20793186;28;20037;-56
2023/05/21 17:27:05;;;;;;;;;;;;;;;24.54;64.41;101652.19;20787609;28;19929;-57
2023/05/21 17:37:27;;;;;;;;;;;;;;;24.56;64.72;101650.25;20800014;28;19924;-57
2023/05/21 17:47:48;;;;;;;;;;;;;;;24.60;64.83;101641.13;20803783;28;20115;-55
2023/05/21 17:58:10;;;;;;;;;;;;;;;24.51;65.18;101633.88;20797528;28;19929;-56
2023/05/21 18:08:31;;;;;;;;;;;;;;;24.45;65.12;101634.34;20807864;28;20319;-55
2023/05/21 18:18:53;;;;;;;;;;;;;;;24.29;66.60;101633.81;20816556;28;19932;-56
2023/05/21 18:29:14;;;;;;;;;;;;;;;24.15;66.85;101646.38;20806149;28;20027;-57
2023/05/21 18:39:36;;;;;;;;;;;;;;;24.01;67.48;101649.19;20808643;28;20002;-57
2023/05/21 18:49:57;;;;;;;;;;;;;;;23.93;66.98;101655.00;20809384;28;19939;-57
2023/05/21 19:00:19;;;;;;;;;;;;;;;23.78;68.04;101653.44;20803271;28;19968;-56
2023/05/21 19:10:40;;;;;;;;;;;;;;;23.66;67.60;101644.59;20813208;28;19925;-56
2023/05/21 19:21:02;;;;;;;;;;;;;;;23.58;67.83;101651.38;20788186;28;19956;-58
2023/05/21 19:31:24;;;;;;;;;;;;;;;23.49;67.79;101654.69;20811974;28;19932;-55
2023/05/21 19:41:46;;;;;;;;;;;;;;;23.37;67.90;101666.09;20807495;28;19929;-56
2023/05/21 19:52:09;;;;;;;;;;;;;;;23.24;68.53;101670.53;20805484;28;19929;-56
2023/05/21 20:02:30;;;;;;;;;;;;;;;23.11;68.83;101675.78;20804136;28;19925;-55
2023/05/21 20:12:52;;;;;;;;;;;;;;;23.00;68.61;101685.41;20808078;28;19947;-57
2023/05/21 20:23:13;;;;;;;;;;;;;;;22.90;68.33;101672.84;20804003;28;19925;-56
2023/05/21 20:33:39;;;;;;;;;;;;;;;22.78;68.17;101683.38;20795106;28;20392;-58
2023/05/21 20:44:03;;;;;;;;;;;;;;;22.65;68.34;101670.13;20801792;28;19925;-57
2023/05/21 20:54:25;;;;;;;;;;;;;;;22.46;69.59;101669.66;20819452;28;19932;-58
2023/05/21 21:04:48;;;;;;;;;;;;;;;22.33;69.63;101670.53;20800622;28;19951;-58
2023/05/21 21:15:10;;;;;;;;;;;;;;;22.23;69.61;101670.28;20780941;28;19940;-58
2023/05/21 21:25:33;;;;;;;;;;;;;;;22.15;69.20;101680.50;20800132;28;20469;-56
2023/05/21 21:35:54;;;;;;;;;;;;;;;22.02;69.90;101673.47;20809482;28;19929;-55
2023/05/21 21:46:16;;;;;;;;;;;;;;;21.86;70.63;101665.69;20822351;28;19925;-55
2023/05/21 21:56:38;;;;;;;;;;;;;;;21.79;70.51;101664.41;20816144;28;19969;-55
2023/05/21 22:07:00;;;;;;;;;;;;;;;21.68;70.47;101649.19;20812276;28;19983;-55
2023/05/21 22:17:22;;;;;;;;;;;;;;;21.62;71.05;101649.63;20808518;28;19933;-55
2023/05/21 22:27:43;;;;;;;;;;;;;;;21.46;71.84;101640.13;20813754;28;19933;-57
2023/05/21 22:38:05;;;;;;;;;;;;;;;21.37;71.69;101651.22;20821860;28;19975;-56
2023/05/21 22:48:29;;;;;;;;;;;;;;;21.32;71.04;101655.91;20808332;28;19935;-55
2023/05/21 22:58:50;;;;;;;;;;;;;;;21.21;71.90;101651.31;20793733;28;19925;-56
2023/05/21 23:09:12;;;;;;;;;;;;;;;21.14;71.51;101654.41;20798645;28;19925;-56
2023/05/21 23:19:33;;;;;;;;;;;;;;;21.10;70.83;101652.91;20806081;28;19925;-57
2023/05/21 23:29:55;;;;;;;;;;;;;;;21.06;71.33;101654.84;20807701;28;19964;-56
2023/05/21 23:40:17;;;;;;;;;;;;;;;21.04;70.92;101645.38;20802199;28;19937;-56
2023/05/21 23:50:38;;;;;;;;;;;;;;;20.93;70.41;101643.38;20791942;28;20408;-56
